createdAt,value
2023-04-04T00:01:29.927Z,4.68
2023-04-04T00:03:57.613Z,5.60
2023-04-04T00:06:24.387Z,5.50
2023-04-04T00:08:50.859Z,7.63
2023-04-04T00:11:17.302Z,4.88
2023-04-04T00:13:48.626Z,6.30
2023-04-04T00:16:15.239Z,5.32
2023-04-04T00:18:41.701Z,6.45
2023-04-04T00:21:08.170Z,4.45
2023-04-04T00:23:34.482Z,4.65
2023-04-04T00:26:01.409Z,4.38
2023-04-04T00:28:27.785Z,5.97
2023-04-04T00:30:54.743Z,4.57
2023-04-04T00:33:21.638Z,4.93
2023-04-04T00:35:48.995Z,5.18
2023-04-04T00:38:15.479Z,6.05
2023-04-04T00:40:47.752Z,7.65
2023-04-04T00:43:14.543Z,3.38
2023-04-04T00:45:41.357Z,4.45
2023-04-04T00:48:10.369Z,5.93
2023-04-04T00:50:36.901Z,6.40
2023-04-04T00:53:03.375Z,3.58
2023-04-04T00:55:29.830Z,4.47
2023-04-04T00:57:56.385Z,6.95
2023-04-04T01:00:22.822Z,3.95
2023-04-04T01:02:52.080Z,5.38
2023-04-04T01:05:18.588Z,6.18
2023-04-04T01:07:44.965Z,6.30
2023-04-04T01:10:11.902Z,6.05
2023-04-04T01:12:39.610Z,6.82
2023-04-04T01:15:06.159Z,5.30
2023-04-04T01:17:32.555Z,5.18
2023-04-04T01:20:09.018Z,7.15
2023-04-04T01:22:35.924Z,5.10
2023-04-04T01:25:04.445Z,4.60
2023-04-04T01:27:31.460Z,3.90
2023-04-04T01:30:00.421Z,5.28
2023-04-04T01:32:44.406Z,6.43
2023-04-04T01:35:21.301Z,4.25
2023-04-04T01:37:47.706Z,4.43
2023-04-04T01:40:21.368Z,5.45
2023-04-04T01:42:49.212Z,6.68
2023-04-04T01:45:15.637Z,4.30
2023-04-04T01:47:42.297Z,5.80
2023-04-04T01:50:09.467Z,5.88
2023-04-04T01:52:38.506Z,5.28
2023-04-04T01:55:05.154Z,5.28
2023-04-04T01:57:31.542Z,5.20
2023-04-04T01:59:57.932Z,10.38
2023-04-04T02:02:24.392Z,6.88
2023-04-04T02:04:50.790Z,6.38
2023-04-04T02:07:17.141Z,4.03
2023-04-04T02:09:43.522Z,9.02
2023-04-04T02:12:09.899Z,6.45
2023-04-04T02:14:38.663Z,4.32
2023-04-04T02:17:05.024Z,5.35
2023-04-04T02:19:32.140Z,7.13
2023-04-04T02:21:58.460Z,5.18
2023-04-04T02:24:24.907Z,8.32
2023-04-04T02:26:51.598Z,6.10
2023-04-04T02:29:17.988Z,5.72
2023-04-04T02:31:44.355Z,4.80
2023-04-04T02:34:10.769Z,5.03
2023-04-04T02:36:37.494Z,7.72
2023-04-04T02:39:06.305Z,6.60
2023-04-04T02:41:32.659Z,3.33
2023-04-04T02:43:59.023Z,4.15
2023-04-04T02:46:25.540Z,5.60
2023-04-04T02:48:52.098Z,5.00
2023-04-04T02:51:21.359Z,5.75
2023-04-04T02:53:47.785Z,4.70
2023-04-04T02:56:16.409Z,4.57
2023-04-04T02:58:43.270Z,4.90
2023-04-04T03:01:15.118Z,7.47
2023-04-04T03:03:41.638Z,5.38
2023-04-04T03:06:08.147Z,6.30
2023-04-04T03:08:35.737Z,11.63
2023-04-04T03:11:04.484Z,5.68
2023-04-04T03:13:30.911Z,6.55
2023-04-04T03:16:06.214Z,11.07
2023-04-04T03:18:34.652Z,9.50
2023-04-04T03:21:01.173Z,10.80
2023-04-04T03:23:29.902Z,7.70
2023-04-04T03:25:58.720Z,8.35
2023-04-04T03:28:25.095Z,8.50
2023-04-04T03:30:53.857Z,6.10
2023-04-04T03:33:21.766Z,7.40
2023-04-04T03:35:48.201Z,7.88
2023-04-04T03:38:14.604Z,8.27
2023-04-04T03:40:42.059Z,8.95
2023-04-04T03:43:08.690Z,12.27
2023-04-04T03:45:35.861Z,7.60
2023-04-04T03:48:02.632Z,6.72
2023-04-04T03:50:29.377Z,4.85
2023-04-04T03:52:55.757Z,8.80
2023-04-04T03:55:22.095Z,5.75
2023-04-04T03:57:48.617Z,5.15
2023-04-04T04:00:15.356Z,7.25
2023-04-04T04:02:41.948Z,5.70
2023-04-04T04:05:09.292Z,6.97
2023-04-04T04:07:35.816Z,6.68
2023-04-04T04:10:05.524Z,8.35
2023-04-04T04:12:34.446Z,8.95
2023-04-04T04:15:00.906Z,5.30
2023-04-04T04:17:27.721Z,5.53
2023-04-04T04:19:54.106Z,4.40
2023-04-04T04:22:20.434Z,5.78
2023-04-04T04:24:46.793Z,7.30
2023-04-04T04:27:13.130Z,6.70
2023-04-04T04:29:39.614Z,9.70
2023-04-04T04:32:06.604Z,7.57
2023-04-04T04:34:33.035Z,6.88
2023-04-04T04:36:59.387Z,7.30
2023-04-04T04:39:25.737Z,7.28
2023-04-04T04:41:54.905Z,5.88
2023-04-04T04:44:21.378Z,7.32
2023-04-04T04:46:47.814Z,10.07
2023-04-04T04:49:14.251Z,8.50
2023-04-04T04:51:42.429Z,8.88
2023-04-04T04:54:08.834Z,7.82
2023-04-04T04:56:35.192Z,11.50
2023-04-04T04:59:01.613Z,11.75
2023-04-04T05:01:28.148Z,13.02
2023-04-04T05:03:54.617Z,10.52
2023-04-04T05:06:21.544Z,19.02
2023-04-04T05:08:48.015Z,9.77
2023-04-04T05:11:14.378Z,10.20
2023-04-04T05:13:41.022Z,10.82
2023-04-04T05:16:07.678Z,10.57
2023-04-04T05:18:34.078Z,9.80
2023-04-04T05:21:00.446Z,10.85
2023-04-04T05:23:27.264Z,9.05
2023-04-04T05:25:53.708Z,6.53
2023-04-04T05:28:20.894Z,13.30
2023-04-04T05:30:47.490Z,9.60
2023-04-04T05:33:13.903Z,8.85
2023-04-04T05:35:41.342Z,17.50
2023-04-04T05:38:07.821Z,10.45
2023-04-04T05:40:36.858Z,10.77
2023-04-04T05:43:04.342Z,12.75
2023-04-04T05:45:31.563Z,12.75
2023-04-04T05:48:00.095Z,11.07
2023-04-04T05:50:29.392Z,11.98
2023-04-04T05:52:55.959Z,11.95
2023-04-04T05:55:22.450Z,12.98
2023-04-04T05:57:51.348Z,13.52
2023-04-04T06:00:18.464Z,13.70
2023-04-04T06:02:45.050Z,11.85
2023-04-04T06:05:11.723Z,9.65
2023-04-04T06:07:38.133Z,9.70
2023-04-04T06:10:04.924Z,8.70
2023-04-04T06:12:31.313Z,8.70
2023-04-04T06:14:57.651Z,12.38
2023-04-04T06:17:24.535Z,10.82
2023-04-04T06:19:55.461Z,11.48
2023-04-04T06:22:21.933Z,7.88
2023-04-04T06:24:48.340Z,10.40
2023-04-04T06:27:14.902Z,8.55
2023-04-04T06:29:41.597Z,8.75
2023-04-04T06:32:08.051Z,8.30
2023-04-04T06:34:34.457Z,9.80
2023-04-04T06:37:00.959Z,6.55
2023-04-04T06:39:27.564Z,12.88
2023-04-04T06:41:54.095Z,11.57
2023-04-04T06:44:20.475Z,7.70
2023-04-04T06:46:47.883Z,7.63
2023-04-04T06:49:14.306Z,7.18
2023-04-04T06:51:41.700Z,7.22
2023-04-04T06:54:08.611Z,6.97
2023-04-04T06:56:34.991Z,6.88
2023-04-04T06:59:01.523Z,7.65
2023-04-04T07:01:27.951Z,5.93
2023-04-04T07:03:54.604Z,5.18
2023-04-04T07:06:25.926Z,8.77
2023-04-04T07:08:52.525Z,6.32
2023-04-04T07:11:19.024Z,5.63
2023-04-04T07:13:45.387Z,4.90
2023-04-04T07:16:12.022Z,5.97
2023-04-04T07:18:38.496Z,9.43
2023-04-04T07:21:05.381Z,7.18
2023-04-04T07:23:34.185Z,5.55
2023-04-04T07:26:00.561Z,8.95
2023-04-04T07:28:27.052Z,4.68
2023-04-04T07:30:53.448Z,11.32
2023-04-04T07:33:19.870Z,5.25
2023-04-04T07:35:49.179Z,4.45
2023-04-04T07:38:18.900Z,6.43
2023-04-04T07:40:45.407Z,5.53
2023-04-04T07:43:12.045Z,3.85
2023-04-04T07:45:40.555Z,9.27
2023-04-04T07:48:06.921Z,4.18
2023-04-04T07:50:35.857Z,3.65
2023-04-04T07:53:02.493Z,3.60
2023-04-04T07:55:29.011Z,4.88
2023-04-04T07:57:55.362Z,5.53
2023-04-04T08:00:22.693Z,5.75
2023-04-04T08:02:53.591Z,4.97
2023-04-04T08:05:20.353Z,5.07
2023-04-04T08:07:47.300Z,6.70
2023-04-04T08:10:17.429Z,6.53
2023-04-04T08:12:44.928Z,5.93
2023-04-04T08:15:12.050Z,7.72
2023-04-04T08:17:38.508Z,6.95
2023-04-04T08:20:05.342Z,6.28
2023-04-04T08:22:31.850Z,6.18
2023-04-04T08:24:58.300Z,7.78
2023-04-04T08:27:24.645Z,9.43
2023-04-04T08:29:50.998Z,7.03
2023-04-04T08:32:17.595Z,6.00
2023-04-04T08:34:43.987Z,6.05
2023-04-04T08:37:11.360Z,6.03
2023-04-04T08:39:38.084Z,10.38
2023-04-04T08:42:05.621Z,7.70
2023-04-04T08:44:33.639Z,5.50
2023-04-04T08:47:03.341Z,7.07
2023-04-04T08:49:30.065Z,6.38
2023-04-04T08:51:56.800Z,7.97
2023-04-04T08:54:24.781Z,6.07
2023-04-04T08:56:53.625Z,5.22
2023-04-04T08:59:21.146Z,7.38
2023-04-04T09:01:47.684Z,4.55
2023-04-04T09:04:14.061Z,7.28
2023-04-04T09:06:40.788Z,6.43
2023-04-04T09:09:07.491Z,4.57
2023-04-04T09:11:35.082Z,6.63
2023-04-04T09:14:04.420Z,5.72
2023-04-04T09:16:31.143Z,4.57
2023-04-04T09:18:59.902Z,5.35
2023-04-04T09:21:27.058Z,4.57
2023-04-04T09:24:00.378Z,6.35
2023-04-04T09:26:29.118Z,6.45
2023-04-04T09:28:55.640Z,7.63
2023-04-04T09:31:24.375Z,6.05
2023-04-04T09:33:53.324Z,6.30
2023-04-04T09:36:19.885Z,5.38
2023-04-04T09:38:49.341Z,7.40
2023-04-04T09:41:16.492Z,4.78
2023-04-04T09:43:44.976Z,4.05
2023-04-04T09:46:11.362Z,5.25
2023-04-04T09:48:37.995Z,7.53
2023-04-04T09:51:05.536Z,6.43
2023-04-04T09:53:34.107Z,6.07
2023-04-04T09:56:00.569Z,5.35
2023-04-04T09:58:28.050Z,4.28
2023-04-04T10:00:56.151Z,3.03
2023-04-04T10:03:26.254Z,30.05
2023-04-04T10:06:11.062Z,9.43
2023-04-04T10:08:39.595Z,4.43
2023-04-04T10:11:11.953Z,13.85
2023-04-04T10:13:44.482Z,10.45
2023-04-04T10:16:11.864Z,5.05
2023-04-04T10:18:39.178Z,5.60
2023-04-04T10:23:36.959Z,8.63
2023-04-04T10:26:03.332Z,3.92
2023-04-04T10:28:29.968Z,3.83
2023-04-04T10:31:07.117Z,4.85
2023-04-04T10:33:52.777Z,3.08
2023-04-04T10:36:27.964Z,3.63
2023-04-04T10:39:13.082Z,4.07
2023-04-04T10:41:42.251Z,6.22
2023-04-04T10:44:19.604Z,4.78
2023-04-04T10:46:47.150Z,3.97
2023-04-04T10:49:14.931Z,3.97
2023-04-04T10:51:54.997Z,4.07
2023-04-04T10:54:23.317Z,5.25
2023-04-04T10:56:49.863Z,2.80
2023-04-04T10:59:17.333Z,4.38
2023-04-04T11:01:49.836Z,6.55
2023-04-04T11:04:20.283Z,3.90
2023-04-04T11:07:06.374Z,4.30
2023-04-04T11:09:51.812Z,5.03
2023-04-04T11:12:23.517Z,3.45
2023-04-04T11:14:56.687Z,4.85
2023-04-04T11:17:41.370Z,4.32
2023-04-04T11:20:08.699Z,7.15
2023-04-04T11:22:38.334Z,4.03
2023-04-04T11:25:23.750Z,4.63
2023-04-04T11:27:53.441Z,4.93
2023-04-04T11:30:20.363Z,4.00
2023-04-04T11:32:59.829Z,6.63
2023-04-04T11:35:30.613Z,6.95
2023-04-04T11:37:56.994Z,3.70
2023-04-04T11:40:42.669Z,5.90
2023-04-04T11:43:09.958Z,4.43
2023-04-04T11:45:37.515Z,5.15
2023-04-04T11:48:05.932Z,6.65
2023-04-04T11:50:39.657Z,6.40
2023-04-04T11:53:07.184Z,10.73
2023-04-04T11:55:33.603Z,3.40
2023-04-04T11:58:13.344Z,4.47
2023-04-04T12:00:41.494Z,6.78
2023-04-04T12:03:10.881Z,5.45
2023-04-04T12:05:42.016Z,4.13
2023-04-04T12:08:10.222Z,5.72
2023-04-04T12:10:37.594Z,6.50
2023-04-04T12:13:08.102Z,7.38
2023-04-04T12:15:38.136Z,6.57
2023-04-04T12:18:07.987Z,8.25
2023-04-04T12:20:41.032Z,9.93
2023-04-04T12:23:07.466Z,7.15
2023-04-04T12:25:34.186Z,5.72
2023-04-04T12:28:01.881Z,4.72
2023-04-04T12:30:28.373Z,5.55
2023-04-04T12:32:54.875Z,6.65
2023-04-04T12:35:21.358Z,5.18
2023-04-04T12:38:04.092Z,4.57
2023-04-04T12:40:37.150Z,5.28
2023-04-04T12:43:07.556Z,6.88
2023-04-04T12:45:38.102Z,5.43
2023-04-04T12:48:09.815Z,5.32
2023-04-04T12:50:50.782Z,3.58
2023-04-04T12:58:18.225Z,3.75
2023-04-04T13:00:47.066Z,5.78
2023-04-04T13:03:15.489Z,4.38
2023-04-04T13:05:47.311Z,5.93
2023-04-04T13:08:13.860Z,5.47
2023-04-04T13:10:56.860Z,4.47
2023-04-04T13:13:33.547Z,3.38
2023-04-04T13:16:00.028Z,4.57
2023-04-04T13:18:32.217Z,5.15
2023-04-04T13:20:58.669Z,4.65
2023-04-04T13:23:27.612Z,4.57
2023-04-04T13:25:54.351Z,7.78
2023-04-04T13:28:21.353Z,3.92
2023-04-04T13:30:49.645Z,4.43
2023-04-04T13:33:16.890Z,3.83
2023-04-04T13:35:46.322Z,4.97
2023-04-04T13:38:15.240Z,3.92
2023-04-04T13:40:41.801Z,4.88
2023-04-04T13:43:08.688Z,6.97
2023-04-04T13:45:35.510Z,6.45
2023-04-04T13:48:02.177Z,4.75
2023-04-04T13:50:28.790Z,5.18
2023-04-04T13:52:56.581Z,3.83
2023-04-04T13:55:23.305Z,4.53
2023-04-04T13:57:49.677Z,5.45
2023-04-04T14:00:19.252Z,7.35
2023-04-04T14:02:45.687Z,5.78
2023-04-04T14:05:14.603Z,4.85
2023-04-04T14:07:41.076Z,4.70
2023-04-04T14:10:08.007Z,6.13
2023-04-04T14:12:34.390Z,3.95
2023-04-04T14:15:00.820Z,14.15
2023-04-04T14:17:32.131Z,8.77
2023-04-04T14:19:58.491Z,7.50
2023-04-04T14:22:25.343Z,6.28
2023-04-04T14:24:51.758Z,5.50
2023-04-04T14:27:18.199Z,5.32
2023-04-04T14:29:44.607Z,7.20
2023-04-04T14:32:11.464Z,4.97
2023-04-04T14:34:40.467Z,5.07
2023-04-04T14:37:07.186Z,4.45
2023-04-04T14:39:33.599Z,6.07
2023-04-04T14:42:00.528Z,4.25
2023-04-04T14:44:27.470Z,5.07
2023-04-04T14:46:54.025Z,5.82
2023-04-04T14:49:20.714Z,4.15
2023-04-04T14:51:47.434Z,4.57
2023-04-04T14:54:13.862Z,4.95
2023-04-04T14:56:42.660Z,5.18
2023-04-04T14:59:09.073Z,5.18
2023-04-04T15:01:35.862Z,5.38
2023-04-04T15:04:02.523Z,7.35
2023-04-04T15:06:31.938Z,5.28
2023-04-04T15:08:58.473Z,5.93
2023-04-04T15:11:27.021Z,4.93
2023-04-04T15:13:53.414Z,4.30
2023-04-04T15:16:19.951Z,3.58
2023-04-04T15:18:46.436Z,6.28
2023-04-04T15:21:12.855Z,7.53
2023-04-04T15:23:39.313Z,4.70
2023-04-04T15:26:06.381Z,6.43
2023-04-04T15:28:33.166Z,3.60
2023-04-04T15:31:03.184Z,6.15
2023-04-04T15:33:29.702Z,4.05
2023-04-04T15:35:56.161Z,6.80
2023-04-04T15:38:22.648Z,5.25
2023-04-04T15:40:49.198Z,5.75
2023-04-04T15:43:15.673Z,7.65
2023-04-04T15:45:42.148Z,5.35
2023-04-04T15:48:11.360Z,5.13
2023-04-04T15:50:37.822Z,5.38
2023-04-04T15:53:05.537Z,4.60
2023-04-04T15:55:32.129Z,5.80
2023-04-04T15:57:59.057Z,5.05
2023-04-04T16:00:28.274Z,4.13
2023-04-04T16:02:57.051Z,5.05
2023-04-04T16:05:27.189Z,5.80
2023-04-04T16:07:53.719Z,9.05
2023-04-04T16:10:20.071Z,16.92
2023-04-04T16:12:46.512Z,12.77
2023-04-04T16:15:13.469Z,4.70
2023-04-04T16:17:42.435Z,7.20
2023-04-04T16:20:09.696Z,5.03
2023-04-04T16:22:36.229Z,7.47
2023-04-04T16:25:02.908Z,7.75
2023-04-04T16:27:29.290Z,14.98
2023-04-04T16:29:55.859Z,6.68
2023-04-04T16:32:22.493Z,7.97
2023-04-04T16:34:48.873Z,5.55
2023-04-04T16:37:16.446Z,4.32
2023-04-04T16:39:42.975Z,3.58
2023-04-04T16:42:09.404Z,4.05
2023-04-04T16:44:38.218Z,5.30
2023-04-04T16:47:04.693Z,8.63
2023-04-04T16:49:31.217Z,4.55
2023-04-04T16:51:58.060Z,5.80
2023-04-04T16:54:26.578Z,7.18
2023-04-04T16:56:53.033Z,7.38
2023-04-04T16:59:19.618Z,8.15
2023-04-04T17:01:48.990Z,6.97
2023-04-04T17:04:18.184Z,5.22
2023-04-04T17:06:44.674Z,5.95
2023-04-04T17:09:13.498Z,9.80
2023-04-04T17:11:44.585Z,7.22
2023-04-04T17:14:11.001Z,5.38
2023-04-04T17:16:37.543Z,7.40
2023-04-04T17:19:03.974Z,6.05
2023-04-04T17:21:33.409Z,4.85
2023-04-04T17:24:02.236Z,4.18
2023-04-04T17:26:28.591Z,6.65
2023-04-04T17:28:54.988Z,5.55
2023-04-04T17:31:21.814Z,9.63
2023-04-04T17:33:48.207Z,7.68
2023-04-04T17:36:14.736Z,8.55
2023-04-04T17:38:41.483Z,8.70
2023-04-04T17:41:08.211Z,4.55
2023-04-04T17:43:34.657Z,7.25
2023-04-04T17:46:02.746Z,6.65
2023-04-04T17:48:32.278Z,6.30
2023-04-04T17:50:59.326Z,5.90
2023-04-04T17:53:25.830Z,7.15
2023-04-04T17:55:54.655Z,5.75
2023-04-04T17:58:25.740Z,8.10
2023-04-04T18:00:52.944Z,9.95
2023-04-04T18:03:23.209Z,10.40
2023-04-04T18:05:49.950Z,11.85
2023-04-04T18:08:19.081Z,13.27
2023-04-04T18:10:48.457Z,20.05
2023-04-04T18:13:15.380Z,36.03
2023-04-04T18:15:41.968Z,21.70
2023-04-04T18:18:08.540Z,10.80
2023-04-04T18:20:35.894Z,10.57
2023-04-04T18:23:04.184Z,7.88
2023-04-04T18:25:36.379Z,8.73
2023-04-04T18:28:05.873Z,7.57
2023-04-04T18:30:34.920Z,10.07
2023-04-04T18:33:01.691Z,9.50
2023-04-04T18:35:28.184Z,11.27
2023-04-04T18:37:54.606Z,9.30
2023-04-04T18:40:21.143Z,7.80
2023-04-04T18:42:47.949Z,15.30
2023-04-04T18:45:15.740Z,9.00
2023-04-04T18:47:42.166Z,14.07
2023-04-04T18:50:08.832Z,7.35
2023-04-04T18:52:37.901Z,10.98
2023-04-04T18:55:04.764Z,13.48
2023-04-04T18:57:31.480Z,17.58
2023-04-04T18:59:57.948Z,16.38
2023-04-04T19:02:27.065Z,14.95
2023-04-04T19:04:55.068Z,12.18
2023-04-04T19:07:24.554Z,9.18
2023-04-04T19:09:51.488Z,9.82
2023-04-04T19:12:18.111Z,12.88
2023-04-04T19:14:44.477Z,10.48
2023-04-04T19:17:13.377Z,7.47
2023-04-04T19:19:43.313Z,5.65
2023-04-04T19:22:12.128Z,8.68
2023-04-04T19:24:40.428Z,13.00
2023-04-04T19:27:06.949Z,9.13
2023-04-04T19:29:34.842Z,8.23
2023-04-04T19:32:03.861Z,5.25
2023-04-04T19:34:31.705Z,11.85
2023-04-04T19:36:58.073Z,12.82
2023-04-04T19:39:29.177Z,12.77
2023-04-04T19:41:58.145Z,8.73
2023-04-04T19:44:24.836Z,11.93
2023-04-04T19:46:53.992Z,11.60
2023-04-04T19:49:27.833Z,9.82
2023-04-04T19:51:55.628Z,13.15
2023-04-04T19:54:24.437Z,13.32
2023-04-04T19:56:52.789Z,14.10
2023-04-04T19:59:37.991Z,25.65
2023-04-04T20:02:06.036Z,26.35
2023-04-04T20:04:32.512Z,27.48
2023-04-04T20:06:58.920Z,24.42
2023-04-04T20:09:31.192Z,25.48
2023-04-04T20:11:57.558Z,30.98
2023-04-04T20:14:24.345Z,26.05
2023-04-04T20:16:54.249Z,11.63
2023-04-04T20:19:24.660Z,10.35
2023-04-04T20:21:51.428Z,7.88
2023-04-04T20:24:20.909Z,8.80
2023-04-04T20:26:47.298Z,9.60
2023-04-04T20:29:14.658Z,7.30
2023-04-04T20:31:44.372Z,6.72
2023-04-04T20:34:29.600Z,7.45
2023-04-04T20:36:56.069Z,6.22
2023-04-04T20:39:41.511Z,6.75
2023-04-04T20:42:16.602Z,9.35
2023-04-04T20:44:42.929Z,9.63
2023-04-04T20:47:28.785Z,8.23
2023-04-04T20:49:55.328Z,9.10
2023-04-04T20:52:24.551Z,10.05
2023-04-04T20:54:51.037Z,10.50
2023-04-04T20:57:23.537Z,9.63
2023-04-04T20:59:49.960Z,11.60
2023-04-04T21:02:18.361Z,12.65
2023-04-04T21:04:45.714Z,10.82
2023-04-04T21:07:34.131Z,10.43
2023-04-04T21:10:00.727Z,17.17
2023-04-04T21:12:27.557Z,23.98
2023-04-04T21:14:54.544Z,16.45
2023-04-04T21:17:20.954Z,12.80
2023-04-04T21:19:47.354Z,13.73
2023-04-04T21:22:13.962Z,10.48
2023-04-04T21:24:40.313Z,8.30
2023-04-04T21:27:07.150Z,10.05
2023-04-04T21:29:33.610Z,6.80
2023-04-04T21:32:00.204Z,10.07
2023-04-04T21:34:29.501Z,10.95
2023-04-04T21:36:59.631Z,8.43
2023-04-04T21:39:29.480Z,12.60
2023-04-04T21:42:00.031Z,9.70
2023-04-04T21:44:26.505Z,22.15
2023-04-04T21:46:55.170Z,17.33
2023-04-04T21:49:21.867Z,17.58
2023-04-04T21:51:48.394Z,18.92
2023-04-04T21:54:14.952Z,18.52
2023-04-04T21:56:41.537Z,15.05
2023-04-04T21:59:09.120Z,12.93
2023-04-04T22:01:36.105Z,14.77
2023-04-04T22:04:02.635Z,16.52
2023-04-04T22:06:30.730Z,16.92
2023-04-04T22:08:57.824Z,15.50
2023-04-04T22:11:25.998Z,19.25
2023-04-04T22:14:03.191Z,17.85
2023-04-04T22:16:30.806Z,16.33
2023-04-04T22:18:57.454Z,17.92
2023-04-04T22:21:26.183Z,16.40
2023-04-04T22:23:53.893Z,15.25
2023-04-04T22:26:28.909Z,10.80
2023-04-04T22:28:56.844Z,14.48
2023-04-04T22:31:23.793Z,14.80
2023-04-04T22:33:50.483Z,13.15
2023-04-04T22:36:16.913Z,17.15
2023-04-04T22:38:43.439Z,13.30
2023-04-04T22:41:09.903Z,14.32
2023-04-04T22:43:36.231Z,10.70
2023-04-04T22:46:02.609Z,8.75
2023-04-04T22:48:30.743Z,8.30
2023-04-04T22:50:58.703Z,7.38
2023-04-04T22:53:25.430Z,9.02
2023-04-04T22:55:52.753Z,11.07
2023-04-04T22:58:19.994Z,9.35
2023-04-04T23:00:46.431Z,12.10
2023-04-04T23:03:12.849Z,9.30
2023-04-04T23:05:39.214Z,9.60
2023-04-04T23:08:05.915Z,6.53
2023-04-04T23:10:32.367Z,8.18
2023-04-04T23:12:58.734Z,9.70
2023-04-04T23:15:27.146Z,9.30
2023-04-04T23:17:53.583Z,7.07
2023-04-04T23:20:20.025Z,10.75
2023-04-04T23:22:46.818Z,8.55
2023-04-04T23:25:13.235Z,11.00
2023-04-04T23:27:40.187Z,7.03
2023-04-04T23:30:06.919Z,7.45
2023-04-04T23:32:35.942Z,9.05
2023-04-04T23:35:02.291Z,8.00
2023-04-04T23:37:28.947Z,7.20
2023-04-04T23:39:57.457Z,6.32
2023-04-04T23:42:23.905Z,9.25
2023-04-04T23:44:50.554Z,6.97
2023-04-04T23:47:16.949Z,8.70
2023-04-04T23:49:43.696Z,8.63
2023-04-04T23:52:10.196Z,7.43
2023-04-04T23:54:39.064Z,8.93
2023-04-04T23:57:05.710Z,7.57
2023-04-04T23:59:32.216Z,8.77
